sensor_id;sensor_type;location;lat;lon;timestamp;P1;durP1;ratioP1;P2;durP2;ratioP2
24617;SDS011;12762;51.730;5.356;2024-02-04T00:01:57;12.47;;;7.10;;
24617;SDS011;12762;51.730;5.356;2024-02-04T00:04:24;13.20;;;7.80;;
24617;SDS011;12762;51.730;5.356;2024-02-04T00:06:51;13.17;;;7.53;;
24617;SDS011;12762;51.730;5.356;2024-02-04T00:09:18;12.87;;;7.87;;
24617;SDS011;12762;51.730;5.356;2024-02-04T00:11:45;13.63;;;8.10;;
24617;SDS011;12762;51.730;5.356;2024-02-04T00:14:12;14.37;;;8.73;;
24617;SDS011;12762;51.730;5.356;2024-02-04T00:16:39;14.50;;;8.23;;
24617;SDS011;12762;51.730;5.356;2024-02-04T00:19:06;13.23;;;7.93;;
24617;SDS011;12762;51.730;5.356;2024-02-04T00:21:35;10.43;;;7.00;;
24617;SDS011;12762;51.730;5.356;2024-02-04T00:24:02;12.83;;;7.43;;
24617;SDS011;12762;51.730;5.356;2024-02-04T00:26:29;16.50;;;8.67;;
24617;SDS011;12762;51.730;5.356;2024-02-04T00:28:56;19.80;;;11.13;;
24617;SDS011;12762;51.730;5.356;2024-02-04T00:31:23;24.23;;;11.53;;
24617;SDS011;12762;51.730;5.356;2024-02-04T00:33:49;25.03;;;12.50;;
24617;SDS011;12762;51.730;5.356;2024-02-04T00:36:16;24.63;;;11.93;;
24617;SDS011;12762;51.730;5.356;2024-02-04T00:38:45;29.57;;;12.47;;
24617;SDS011;12762;51.730;5.356;2024-02-04T00:41:11;29.33;;;12.97;;
24617;SDS011;12762;51.730;5.356;2024-02-04T00:43:38;26.63;;;12.23;;
24617;SDS011;12762;51.730;5.356;2024-02-04T00:46:05;27.20;;;12.33;;
24617;SDS011;12762;51.730;5.356;2024-02-04T00:48:33;25.47;;;11.50;;
24617;SDS011;12762;51.730;5.356;2024-02-04T00:51:00;28.13;;;10.67;;
24617;SDS011;12762;51.730;5.356;2024-02-04T00:53:27;28.93;;;12.70;;
24617;SDS011;12762;51.730;5.356;2024-02-04T00:56:03;28.97;;;10.33;;
24617;SDS011;12762;51.730;5.356;2024-02-04T00:58:30;26.27;;;10.67;;
24617;SDS011;12762;51.730;5.356;2024-02-04T01:00:57;28.57;;;11.80;;
24617;SDS011;12762;51.730;5.356;2024-02-04T01:03:24;24.73;;;10.90;;
24617;SDS011;12762;51.730;5.356;2024-02-04T01:05:51;24.97;;;9.20;;
24617;SDS011;12762;51.730;5.356;2024-02-04T01:08:18;26.23;;;10.50;;
24617;SDS011;12762;51.730;5.356;2024-02-04T01:10:45;32.97;;;10.70;;
24617;SDS011;12762;51.730;5.356;2024-02-04T01:13:13;28.70;;;10.33;;
24617;SDS011;12762;51.730;5.356;2024-02-04T01:15:40;27.17;;;9.80;;
24617;SDS011;12762;51.730;5.356;2024-02-04T01:18:07;30.87;;;10.50;;
24617;SDS011;12762;51.730;5.356;2024-02-04T01:20:34;29.43;;;11.40;;
24617;SDS011;12762;51.730;5.356;2024-02-04T01:23:01;33.10;;;10.70;;
24617;SDS011;12762;51.730;5.356;2024-02-04T01:25:28;31.27;;;11.20;;
24617;SDS011;12762;51.730;5.356;2024-02-04T01:27:55;31.23;;;10.87;;
24617;SDS011;12762;51.730;5.356;2024-02-04T01:30:29;29.07;;;10.10;;
24617;SDS011;12762;51.730;5.356;2024-02-04T01:32:57;32.20;;;9.63;;
24617;SDS011;12762;51.730;5.356;2024-02-04T01:35:24;30.00;;;9.97;;
24617;SDS011;12762;51.730;5.356;2024-02-04T01:37:51;31.87;;;10.57;;
24617;SDS011;12762;51.730;5.356;2024-02-04T01:40:18;34.70;;;11.17;;
24617;SDS011;12762;51.730;5.356;2024-02-04T01:42:44;36.00;;;11.23;;
24617;SDS011;12762;51.730;5.356;2024-02-04T01:45:13;34.30;;;10.77;;
24617;SDS011;12762;51.730;5.356;2024-02-04T01:47:40;27.63;;;10.17;;
24617;SDS011;12762;51.730;5.356;2024-02-04T01:50:07;33.40;;;10.53;;
24617;SDS011;12762;51.730;5.356;2024-02-04T01:52:35;27.47;;;10.33;;
24617;SDS011;12762;51.730;5.356;2024-02-04T01:55:06;34.27;;;11.23;;
24617;SDS011;12762;51.730;5.356;2024-02-04T01:57:33;28.40;;;10.17;;
24617;SDS011;12762;51.730;5.356;2024-02-04T02:00:03;35.87;;;11.33;;
24617;SDS011;12762;51.730;5.356;2024-02-04T02:02:31;29.97;;;11.10;;
24617;SDS011;12762;51.730;5.356;2024-02-04T02:05:05;33.57;;;11.57;;
24617;SDS011;12762;51.730;5.356;2024-02-04T02:07:36;28.93;;;11.30;;
24617;SDS011;12762;51.730;5.356;2024-02-04T02:10:02;28.83;;;11.27;;
24617;SDS011;12762;51.730;5.356;2024-02-04T02:12:48;32.73;;;13.00;;
24617;SDS011;12762;51.730;5.356;2024-02-04T02:15:24;28.83;;;13.07;;
24617;SDS011;12762;51.730;5.356;2024-02-04T02:17:59;33.03;;;12.70;;
24617;SDS011;12762;51.730;5.356;2024-02-04T02:23:19;30.63;;;12.67;;
24617;SDS011;12762;51.730;5.356;2024-02-04T02:25:49;31.83;;;12.13;;
24617;SDS011;12762;51.730;5.356;2024-02-04T02:28:17;28.23;;;11.97;;
24617;SDS011;12762;51.730;5.356;2024-02-04T02:30:47;26.33;;;11.27;;
24617;SDS011;12762;51.730;5.356;2024-02-04T02:33:20;32.23;;;11.60;;
24617;SDS011;12762;51.730;5.356;2024-02-04T02:35:51;33.70;;;12.53;;
24617;SDS011;12762;51.730;5.356;2024-02-04T02:38:41;36.70;;;13.10;;
24617;SDS011;12762;51.730;5.356;2024-02-04T02:41:16;33.80;;;11.13;;
24617;SDS011;12762;51.730;5.356;2024-02-04T02:43:44;28.37;;;11.20;;
24617;SDS011;12762;51.730;5.356;2024-02-04T02:46:12;26.00;;;10.37;;
24617;SDS011;12762;51.730;5.356;2024-02-04T02:48:39;32.60;;;11.00;;
24617;SDS011;12762;51.730;5.356;2024-02-04T02:51:06;35.17;;;10.13;;
24617;SDS011;12762;51.730;5.356;2024-02-04T02:53:33;29.40;;;10.70;;
24617;SDS011;12762;51.730;5.356;2024-02-04T02:56:00;34.10;;;11.10;;
24617;SDS011;12762;51.730;5.356;2024-02-04T02:58:27;27.20;;;10.60;;
24617;SDS011;12762;51.730;5.356;2024-02-04T03:00:53;32.07;;;11.03;;
24617;SDS011;12762;51.730;5.356;2024-02-04T03:03:20;28.23;;;10.27;;
24617;SDS011;12762;51.730;5.356;2024-02-04T03:05:47;32.17;;;10.13;;
24617;SDS011;12762;51.730;5.356;2024-02-04T03:08:14;30.67;;;9.77;;
24617;SDS011;12762;51.730;5.356;2024-02-04T03:10:41;28.33;;;9.80;;
24617;SDS011;12762;51.730;5.356;2024-02-04T03:13:08;24.17;;;9.60;;
24617;SDS011;12762;51.730;5.356;2024-02-04T03:15:35;26.17;;;8.90;;
24617;SDS011;12762;51.730;5.356;2024-02-04T03:18:02;23.47;;;10.07;;
24617;SDS011;12762;51.730;5.356;2024-02-04T03:20:32;22.27;;;8.83;;
24617;SDS011;12762;51.730;5.356;2024-02-04T03:22:58;26.47;;;7.53;;
24617;SDS011;12762;51.730;5.356;2024-02-04T03:25:25;23.93;;;8.27;;
24617;SDS011;12762;51.730;5.356;2024-02-04T03:27:54;30.47;;;8.97;;
24617;SDS011;12762;51.730;5.356;2024-02-04T03:30:21;22.37;;;8.17;;
24617;SDS011;12762;51.730;5.356;2024-02-04T03:32:48;23.73;;;8.57;;
24617;SDS011;12762;51.730;5.356;2024-02-04T03:35:15;29.50;;;7.87;;
24617;SDS011;12762;51.730;5.356;2024-02-04T03:37:41;23.73;;;7.80;;
24617;SDS011;12762;51.730;5.356;2024-02-04T03:40:08;20.80;;;8.37;;
24617;SDS011;12762;51.730;5.356;2024-02-04T03:42:35;22.43;;;8.43;;
24617;SDS011;12762;51.730;5.356;2024-02-04T03:45:02;23.77;;;8.00;;
24617;SDS011;12762;51.730;5.356;2024-02-04T03:47:30;21.30;;;7.17;;
24617;SDS011;12762;51.730;5.356;2024-02-04T03:49:56;23.93;;;7.70;;
24617;SDS011;12762;51.730;5.356;2024-02-04T03:52:23;21.37;;;7.37;;
24617;SDS011;12762;51.730;5.356;2024-02-04T03:54:50;23.53;;;7.60;;
24617;SDS011;12762;51.730;5.356;2024-02-04T03:57:16;22.07;;;7.43;;
24617;SDS011;12762;51.730;5.356;2024-02-04T03:59:46;22.37;;;8.13;;
24617;SDS011;12762;51.730;5.356;2024-02-04T04:02:13;21.93;;;7.77;;
24617;SDS011;12762;51.730;5.356;2024-02-04T04:04:40;21.10;;;7.00;;
24617;SDS011;12762;51.730;5.356;2024-02-04T04:07:14;22.97;;;7.70;;
24617;SDS011;12762;51.730;5.356;2024-02-04T04:09:44;22.10;;;7.50;;
24617;SDS011;12762;51.730;5.356;2024-02-04T04:12:11;22.53;;;7.73;;
24617;SDS011;12762;51.730;5.356;2024-02-04T04:14:40;24.63;;;8.53;;
24617;SDS011;12762;51.730;5.356;2024-02-04T04:17:10;25.60;;;8.70;;
24617;SDS011;12762;51.730;5.356;2024-02-04T04:19:38;24.77;;;8.20;;
24617;SDS011;12762;51.730;5.356;2024-02-04T04:22:05;29.90;;;9.07;;
24617;SDS011;12762;51.730;5.356;2024-02-04T04:24:35;22.00;;;7.93;;
24617;SDS011;12762;51.730;5.356;2024-02-04T04:27:04;19.43;;;8.93;;
24617;SDS011;12762;51.730;5.356;2024-02-04T04:29:35;21.33;;;8.03;;
24617;SDS011;12762;51.730;5.356;2024-02-04T04:32:01;21.30;;;8.30;;
24617;SDS011;12762;51.730;5.356;2024-02-04T04:34:30;21.57;;;7.67;;
24617;SDS011;12762;51.730;5.356;2024-02-04T04:36:57;17.63;;;7.37;;
24617;SDS011;12762;51.730;5.356;2024-02-04T04:39:24;24.60;;;8.47;;
24617;SDS011;12762;51.730;5.356;2024-02-04T04:41:51;25.30;;;8.40;;
24617;SDS011;12762;51.730;5.356;2024-02-04T04:44:17;22.07;;;8.30;;
24617;SDS011;12762;51.730;5.356;2024-02-04T04:46:44;19.47;;;7.83;;
24617;SDS011;12762;51.730;5.356;2024-02-04T04:49:11;25.33;;;8.27;;
24617;SDS011;12762;51.730;5.356;2024-02-04T04:51:38;18.27;;;7.50;;
24617;SDS011;12762;51.730;5.356;2024-02-04T04:54:04;24.37;;;8.27;;
24617;SDS011;12762;51.730;5.356;2024-02-04T04:56:37;21.90;;;8.40;;
24617;SDS011;12762;51.730;5.356;2024-02-04T04:59:08;22.80;;;7.87;;
24617;SDS011;12762;51.730;5.356;2024-02-04T05:01:36;23.37;;;9.00;;
24617;SDS011;12762;51.730;5.356;2024-02-04T05:04:03;22.40;;;8.30;;
24617;SDS011;12762;51.730;5.356;2024-02-04T05:06:33;23.43;;;8.70;;
24617;SDS011;12762;51.730;5.356;2024-02-04T05:09:03;20.17;;;8.13;;
24617;SDS011;12762;51.730;5.356;2024-02-04T05:11:30;20.90;;;8.87;;
24617;SDS011;12762;51.730;5.356;2024-02-04T05:13:57;21.80;;;8.50;;
24617;SDS011;12762;51.730;5.356;2024-02-04T05:16:23;19.90;;;8.47;;
24617;SDS011;12762;51.730;5.356;2024-02-04T05:18:50;26.70;;;9.37;;
24617;SDS011;12762;51.730;5.356;2024-02-04T05:21:17;23.50;;;8.30;;
24617;SDS011;12762;51.730;5.356;2024-02-04T05:23:44;23.63;;;8.70;;
24617;SDS011;12762;51.730;5.356;2024-02-04T05:26:11;24.03;;;8.77;;
24617;SDS011;12762;51.730;5.356;2024-02-04T05:28:38;22.77;;;8.57;;
24617;SDS011;12762;51.730;5.356;2024-02-04T05:31:04;19.07;;;8.50;;
24617;SDS011;12762;51.730;5.356;2024-02-04T05:33:32;17.23;;;8.43;;
24617;SDS011;12762;51.730;5.356;2024-02-04T05:35:59;17.40;;;8.13;;
24617;SDS011;12762;51.730;5.356;2024-02-04T05:38:25;20.43;;;8.33;;
24617;SDS011;12762;51.730;5.356;2024-02-04T05:40:52;21.60;;;7.67;;
24617;SDS011;12762;51.730;5.356;2024-02-04T05:43:19;23.20;;;8.13;;
24617;SDS011;12762;51.730;5.356;2024-02-04T05:45:46;17.17;;;7.20;;
24617;SDS011;12762;51.730;5.356;2024-02-04T05:48:13;16.73;;;7.67;;
24617;SDS011;12762;51.730;5.356;2024-02-04T05:50:40;19.30;;;8.20;;
24617;SDS011;12762;51.730;5.356;2024-02-04T05:53:08;15.87;;;8.10;;
24617;SDS011;12762;51.730;5.356;2024-02-04T05:55:35;14.07;;;7.33;;
24617;SDS011;12762;51.730;5.356;2024-02-04T05:58:05;17.40;;;7.70;;
24617;SDS011;12762;51.730;5.356;2024-02-04T06:00:34;14.43;;;7.00;;
24617;SDS011;12762;51.730;5.356;2024-02-04T06:03:01;14.50;;;7.27;;
24617;SDS011;12762;51.730;5.356;2024-02-04T06:05:28;19.80;;;7.53;;
24617;SDS011;12762;51.730;5.356;2024-02-04T06:07:54;15.57;;;7.50;;
24617;SDS011;12762;51.730;5.356;2024-02-04T06:10:21;16.87;;;6.87;;
24617;SDS011;12762;51.730;5.356;2024-02-04T06:12:48;13.27;;;6.80;;
24617;SDS011;12762;51.730;5.356;2024-02-04T06:15:15;17.87;;;7.20;;
24617;SDS011;12762;51.730;5.356;2024-02-04T06:17:42;16.23;;;7.33;;
24617;SDS011;12762;51.730;5.356;2024-02-04T06:20:10;17.03;;;6.80;;
24617;SDS011;12762;51.730;5.356;2024-02-04T06:22:39;18.63;;;6.87;;
24617;SDS011;12762;51.730;5.356;2024-02-04T06:25:06;15.77;;;6.63;;
24617;SDS011;12762;51.730;5.356;2024-02-04T06:27:33;11.50;;;6.60;;
24617;SDS011;12762;51.730;5.356;2024-02-04T06:30:00;14.20;;;5.83;;
24617;SDS011;12762;51.730;5.356;2024-02-04T06:32:27;12.93;;;6.03;;
24617;SDS011;12762;51.730;5.356;2024-02-04T06:34:57;13.43;;;6.40;;
24617;SDS011;12762;51.730;5.356;2024-02-04T06:37:24;15.70;;;6.50;;
24617;SDS011;12762;51.730;5.356;2024-02-04T06:39:57;12.93;;;6.90;;
24617;SDS011;12762;51.730;5.356;2024-02-04T06:42:24;14.27;;;6.57;;
24617;SDS011;12762;51.730;5.356;2024-02-04T06:44:51;13.90;;;5.87;;
24617;SDS011;12762;51.730;5.356;2024-02-04T06:47:18;20.53;;;6.60;;
24617;SDS011;12762;51.730;5.356;2024-02-04T06:49:44;16.67;;;6.47;;
24617;SDS011;12762;51.730;5.356;2024-02-04T06:52:12;15.30;;;6.53;;
24617;SDS011;12762;51.730;5.356;2024-02-04T06:54:39;12.00;;;5.63;;
24617;SDS011;12762;51.730;5.356;2024-02-04T06:57:06;17.23;;;5.67;;
24617;SDS011;12762;51.730;5.356;2024-02-04T06:59:32;13.63;;;6.20;;
24617;SDS011;12762;51.730;5.356;2024-02-04T07:01:59;12.87;;;5.70;;
24617;SDS011;12762;51.730;5.356;2024-02-04T07:04:26;15.73;;;5.67;;
24617;SDS011;12762;51.730;5.356;2024-02-04T07:06:56;11.53;;;5.60;;
24617;SDS011;12762;51.730;5.356;2024-02-04T07:09:23;16.37;;;6.43;;
24617;SDS011;12762;51.730;5.356;2024-02-04T07:11:49;16.07;;;6.70;;
24617;SDS011;12762;51.730;5.356;2024-02-04T07:14:16;11.50;;;5.93;;
24617;SDS011;12762;51.730;5.356;2024-02-04T07:16:43;15.67;;;6.90;;
24617;SDS011;12762;51.730;5.356;2024-02-04T07:19:10;15.17;;;6.70;;
24617;SDS011;12762;51.730;5.356;2024-02-04T07:21:37;15.13;;;6.33;;
24617;SDS011;12762;51.730;5.356;2024-02-04T07:24:04;12.30;;;6.57;;
24617;SDS011;12762;51.730;5.356;2024-02-04T07:26:31;15.43;;;7.17;;
24617;SDS011;12762;51.730;5.356;2024-02-04T07:28:58;13.37;;;7.10;;
24617;SDS011;12762;51.730;5.356;2024-02-04T07:31:25;18.03;;;7.60;;
24617;SDS011;12762;51.730;5.356;2024-02-04T07:33:51;15.10;;;6.43;;
24617;SDS011;12762;51.730;5.356;2024-02-04T07:36:21;15.70;;;6.80;;
24617;SDS011;12762;51.730;5.356;2024-02-04T07:38:48;16.57;;;6.70;;
24617;SDS011;12762;51.730;5.356;2024-02-04T07:41:14;11.37;;;6.30;;
24617;SDS011;12762;51.730;5.356;2024-02-04T07:43:41;15.53;;;6.13;;
24617;SDS011;12762;51.730;5.356;2024-02-04T07:46:10;15.77;;;6.47;;
24617;SDS011;12762;51.730;5.356;2024-02-04T07:48:37;14.63;;;5.90;;
24617;SDS011;12762;51.730;5.356;2024-02-04T07:51:05;13.23;;;6.10;;
24617;SDS011;12762;51.730;5.356;2024-02-04T07:53:33;12.83;;;6.33;;
24617;SDS011;12762;51.730;5.356;2024-02-04T07:56:00;13.60;;;6.73;;
24617;SDS011;12762;51.730;5.356;2024-02-04T07:58:29;12.80;;;6.37;;
24617;SDS011;12762;51.730;5.356;2024-02-04T08:00:58;14.20;;;6.53;;
24617;SDS011;12762;51.730;5.356;2024-02-04T08:03:25;11.80;;;7.27;;
24617;SDS011;12762;51.730;5.356;2024-02-04T08:05:53;12.73;;;7.33;;
24617;SDS011;12762;51.730;5.356;2024-02-04T08:08:20;12.53;;;6.40;;
24617;SDS011;12762;51.730;5.356;2024-02-04T08:10:49;15.80;;;6.40;;
24617;SDS011;12762;51.730;5.356;2024-02-04T08:13:16;12.57;;;5.93;;
24617;SDS011;12762;51.730;5.356;2024-02-04T08:15:43;12.07;;;5.60;;
24617;SDS011;12762;51.730;5.356;2024-02-04T08:18:10;12.00;;;5.23;;
24617;SDS011;12762;51.730;5.356;2024-02-04T08:20:37;15.33;;;5.47;;
24617;SDS011;12762;51.730;5.356;2024-02-04T08:23:03;9.70;;;4.97;;
24617;SDS011;12762;51.730;5.356;2024-02-04T08:25:34;9.17;;;4.50;;
24617;SDS011;12762;51.730;5.356;2024-02-04T08:28:00;14.50;;;4.70;;
24617;SDS011;12762;51.730;5.356;2024-02-04T08:30:27;10.10;;;4.00;;
24617;SDS011;12762;51.730;5.356;2024-02-04T08:32:54;8.63;;;4.43;;
24617;SDS011;12762;51.730;5.356;2024-02-04T08:35:26;8.90;;;4.00;;
24617;SDS011;12762;51.730;5.356;2024-02-04T08:37:53;11.13;;;4.33;;
24617;SDS011;12762;51.730;5.356;2024-02-04T08:40:20;9.97;;;4.30;;
24617;SDS011;12762;51.730;5.356;2024-02-04T08:42:46;7.07;;;3.67;;
24617;SDS011;12762;51.730;5.356;2024-02-04T08:45:13;6.57;;;3.93;;
24617;SDS011;12762;51.730;5.356;2024-02-04T08:47:40;7.77;;;3.60;;
24617;SDS011;12762;51.730;5.356;2024-02-04T08:50:07;7.93;;;3.77;;
24617;SDS011;12762;51.730;5.356;2024-02-04T08:52:34;11.23;;;4.07;;
24617;SDS011;12762;51.730;5.356;2024-02-04T08:55:01;7.37;;;3.67;;
24617;SDS011;12762;51.730;5.356;2024-02-04T08:57:30;8.73;;;3.67;;
24617;SDS011;12762;51.730;5.356;2024-02-04T08:59:57;10.60;;;4.00;;
24617;SDS011;12762;51.730;5.356;2024-02-04T09:02:27;8.47;;;3.40;;
24617;SDS011;12762;51.730;5.356;2024-02-04T09:04:54;7.67;;;3.33;;
24617;SDS011;12762;51.730;5.356;2024-02-04T09:07:20;8.60;;;3.30;;
24617;SDS011;12762;51.730;5.356;2024-02-04T09:09:47;10.00;;;3.67;;
24617;SDS011;12762;51.730;5.356;2024-02-04T09:12:14;8.67;;;3.30;;
24617;SDS011;12762;51.730;5.356;2024-02-04T09:14:41;9.60;;;3.20;;
24617;SDS011;12762;51.730;5.356;2024-02-04T09:17:08;8.43;;;3.60;;
24617;SDS011;12762;51.730;5.356;2024-02-04T09:19:36;10.67;;;3.30;;
24617;SDS011;12762;51.730;5.356;2024-02-04T09:22:08;6.37;;;3.17;;
24617;SDS011;12762;51.730;5.356;2024-02-04T09:24:34;8.20;;;2.93;;
24617;SDS011;12762;51.730;5.356;2024-02-04T09:27:02;7.83;;;2.70;;
24617;SDS011;12762;51.730;5.356;2024-02-04T09:29:29;6.90;;;3.10;;
24617;SDS011;12762;51.730;5.356;2024-02-04T09:31:56;6.67;;;2.97;;
24617;SDS011;12762;51.730;5.356;2024-02-04T09:34:26;7.90;;;2.53;;
24617;SDS011;12762;51.730;5.356;2024-02-04T09:36:53;13.77;;;2.83;;
24617;SDS011;12762;51.730;5.356;2024-02-04T09:39:23;9.43;;;2.53;;
24617;SDS011;12762;51.730;5.356;2024-02-04T09:41:50;7.10;;;2.80;;
24617;SDS011;12762;51.730;5.356;2024-02-04T09:44:17;7.73;;;2.57;;
24617;SDS011;12762;51.730;5.356;2024-02-04T09:46:46;8.53;;;2.57;;
24617;SDS011;12762;51.730;5.356;2024-02-04T09:49:16;6.17;;;2.30;;
24617;SDS011;12762;51.730;5.356;2024-02-04T09:51:43;7.40;;;2.30;;
24617;SDS011;12762;51.730;5.356;2024-02-04T09:54:11;7.10;;;1.97;;
24617;SDS011;12762;51.730;5.356;2024-02-04T09:56:41;5.60;;;2.00;;
24617;SDS011;12762;51.730;5.356;2024-02-04T09:59:08;4.70;;;1.70;;
24617;SDS011;12762;51.730;5.356;2024-02-04T10:01:35;6.17;;;1.83;;
24617;SDS011;12762;51.730;5.356;2024-02-04T10:04:02;4.30;;;1.77;;
24617;SDS011;12762;51.730;5.356;2024-02-04T10:06:32;5.70;;;1.70;;
24617;SDS011;12762;51.730;5.356;2024-02-04T10:08:59;2.33;;;1.50;;
24617;SDS011;12762;51.730;5.356;2024-02-04T10:11:27;4.40;;;1.67;;
24617;SDS011;12762;51.730;5.356;2024-02-04T10:13:54;5.07;;;1.53;;
24617;SDS011;12762;51.730;5.356;2024-02-04T10:16:21;3.93;;;1.80;;
24617;SDS011;12762;51.730;5.356;2024-02-04T10:18:48;5.83;;;2.10;;
24617;SDS011;12762;51.730;5.356;2024-02-04T10:21:23;5.70;;;2.03;;
24617;SDS011;12762;51.730;5.356;2024-02-04T10:23:51;5.40;;;2.10;;
24617;SDS011;12762;51.730;5.356;2024-02-04T10:26:18;8.17;;;2.73;;
24617;SDS011;12762;51.730;5.356;2024-02-04T10:28:48;6.70;;;2.93;;
24617;SDS011;12762;51.730;5.356;2024-02-04T10:31:15;6.60;;;3.07;;
24617;SDS011;12762;51.730;5.356;2024-02-04T10:33:43;6.07;;;3.20;;
24617;SDS011;12762;51.730;5.356;2024-02-04T10:36:10;7.17;;;3.17;;
24617;SDS011;12762;51.730;5.356;2024-02-04T10:38:37;5.47;;;3.17;;
24617;SDS011;12762;51.730;5.356;2024-02-04T10:41:04;6.23;;;3.17;;
24617;SDS011;12762;51.730;5.356;2024-02-04T10:43:36;7.87;;;3.60;;
24617;SDS011;12762;51.730;5.356;2024-02-04T10:48:41;6.73;;;4.03;;
24617;SDS011;12762;51.730;5.356;2024-02-04T10:51:14;8.50;;;4.07;;
24617;SDS011;12762;51.730;5.356;2024-02-04T10:53:42;8.13;;;4.40;;
24617;SDS011;12762;51.730;5.356;2024-02-04T10:56:18;9.37;;;4.63;;
24617;SDS011;12762;51.730;5.356;2024-02-04T10:58:48;7.97;;;4.27;;
24617;SDS011;12762;51.730;5.356;2024-02-04T11:01:17;9.80;;;4.37;;
24617;SDS011;12762;51.730;5.356;2024-02-04T11:03:45;9.70;;;4.73;;
24617;SDS011;12762;51.730;5.356;2024-02-04T11:06:12;9.20;;;4.80;;
24617;SDS011;12762;51.730;5.356;2024-02-04T11:08:39;9.00;;;4.80;;
24617;SDS011;12762;51.730;5.356;2024-02-04T11:11:07;9.13;;;5.03;;
24617;SDS011;12762;51.730;5.356;2024-02-04T11:13:34;10.03;;;4.67;;
24617;SDS011;12762;51.730;5.356;2024-02-04T11:16:04;10.13;;;4.50;;
24617;SDS011;12762;51.730;5.356;2024-02-04T11:18:50;10.63;;;4.10;;
24617;SDS011;12762;51.730;5.356;2024-02-04T11:28:06;10.60;;;5.20;;
24617;SDS011;12762;51.730;5.356;2024-02-04T11:30:34;8.63;;;3.67;;
24617;SDS011;12762;51.730;5.356;2024-02-04T11:33:03;6.87;;;3.23;;
24617;SDS011;12762;51.730;5.356;2024-02-04T11:35:32;6.10;;;3.03;;
24617;SDS011;12762;51.730;5.356;2024-02-04T11:37:59;9.03;;;3.20;;
24617;SDS011;12762;51.730;5.356;2024-02-04T11:40:36;9.70;;;3.03;;
24617;SDS011;12762;51.730;5.356;2024-02-04T11:43:05;7.27;;;2.93;;
24617;SDS011;12762;51.730;5.356;2024-02-04T11:45:32;6.73;;;2.47;;
24617;SDS011;12762;51.730;5.356;2024-02-04T11:48:07;7.00;;;2.10;;
24617;SDS011;12762;51.730;5.356;2024-02-04T11:50:36;5.37;;;2.30;;
24617;SDS011;12762;51.730;5.356;2024-02-04T11:53:08;5.73;;;2.50;;
24617;SDS011;12762;51.730;5.356;2024-02-04T11:55:39;6.20;;;2.53;;
24617;SDS011;12762;51.730;5.356;2024-02-04T11:58:11;6.63;;;1.90;;
24617;SDS011;12762;51.730;5.356;2024-02-04T12:00:41;4.53;;;1.87;;
24617;SDS011;12762;51.730;5.356;2024-02-04T12:03:11;4.50;;;1.83;;
24617;SDS011;12762;51.730;5.356;2024-02-04T12:05:41;7.97;;;1.73;;
24617;SDS011;12762;51.730;5.356;2024-02-04T12:08:09;6.07;;;1.60;;
24617;SDS011;12762;51.730;5.356;2024-02-04T12:10:37;7.67;;;1.73;;
24617;SDS011;12762;51.730;5.356;2024-02-04T12:13:06;4.57;;;1.70;;
24617;SDS011;12762;51.730;5.356;2024-02-04T12:15:36;10.13;;;1.83;;
24617;SDS011;12762;51.730;5.356;2024-02-04T12:18:20;5.13;;;1.50;;
24617;SDS011;12762;51.730;5.356;2024-02-04T12:20:48;6.00;;;1.53;;
24617;SDS011;12762;51.730;5.356;2024-02-04T12:23:18;4.57;;;1.50;;
24617;SDS011;12762;51.730;5.356;2024-02-04T12:25:45;4.30;;;1.47;;
24617;SDS011;12762;51.730;5.356;2024-02-04T12:28:12;5.50;;;1.30;;
24617;SDS011;12762;51.730;5.356;2024-02-04T12:30:40;5.40;;;1.43;;
24617;SDS011;12762;51.730;5.356;2024-02-04T12:33:18;6.63;;;1.50;;
24617;SDS011;12762;51.730;5.356;2024-02-04T12:35:48;7.17;;;1.33;;
24617;SDS011;12762;51.730;5.356;2024-02-04T12:38:19;5.47;;;1.30;;
24617;SDS011;12762;51.730;5.356;2024-02-04T12:40:45;5.57;;;1.20;;
24617;SDS011;12762;51.730;5.356;2024-02-04T12:43:12;6.20;;;1.47;;
24617;SDS011;12762;51.730;5.356;2024-02-04T12:45:39;5.53;;;1.23;;
24617;SDS011;12762;51.730;5.356;2024-02-04T12:48:06;4.93;;;1.40;;
24617;SDS011;12762;51.730;5.356;2024-02-04T12:50:40;5.53;;;1.60;;
24617;SDS011;12762;51.730;5.356;2024-02-04T12:53:07;8.40;;;1.40;;
24617;SDS011;12762;51.730;5.356;2024-02-04T12:55:39;5.90;;;1.37;;
24617;SDS011;12762;51.730;5.356;2024-02-04T12:58:09;5.23;;;1.23;;
24617;SDS011;12762;51.730;5.356;2024-02-04T13:00:43;4.83;;;1.30;;
24617;SDS011;12762;51.730;5.356;2024-02-04T13:03:14;5.63;;;1.10;;
24617;SDS011;12762;51.730;5.356;2024-02-04T13:05:42;6.37;;;1.40;;
24617;SDS011;12762;51.730;5.356;2024-02-04T13:08:08;5.33;;;1.27;;
24617;SDS011;12762;51.730;5.356;2024-02-04T13:10:36;6.30;;;1.17;;
24617;SDS011;12762;51.730;5.356;2024-02-04T13:13:04;3.40;;;1.23;;
24617;SDS011;12762;51.730;5.356;2024-02-04T13:15:36;5.43;;;1.40;;
24617;SDS011;12762;51.730;5.356;2024-02-04T13:18:03;6.23;;;1.50;;
24617;SDS011;12762;51.730;5.356;2024-02-04T13:20:31;4.50;;;1.37;;
24617;SDS011;12762;51.730;5.356;2024-02-04T13:22:58;6.50;;;1.40;;
24617;SDS011;12762;51.730;5.356;2024-02-04T13:25:26;4.60;;;1.60;;
24617;SDS011;12762;51.730;5.356;2024-02-04T13:27:54;5.80;;;1.40;;
24617;SDS011;12762;51.730;5.356;2024-02-04T13:30:21;8.33;;;1.50;;
24617;SDS011;12762;51.730;5.356;2024-02-04T13:32:52;4.87;;;1.60;;
24617;SDS011;12762;51.730;5.356;2024-02-04T13:35:19;3.27;;;1.43;;
24617;SDS011;12762;51.730;5.356;2024-02-04T13:37:47;3.97;;;1.20;;
24617;SDS011;12762;51.730;5.356;2024-02-04T13:40:19;5.00;;;1.50;;
24617;SDS011;12762;51.730;5.356;2024-02-04T13:42:50;2.73;;;1.00;;
24617;SDS011;12762;51.730;5.356;2024-02-04T13:45:17;6.90;;;1.40;;
24617;SDS011;12762;51.730;5.356;2024-02-04T13:47:44;4.57;;;1.00;;
24617;SDS011;12762;51.730;5.356;2024-02-04T13:50:11;8.53;;;1.27;;
24617;SDS011;12762;51.730;5.356;2024-02-04T13:52:39;7.07;;;1.17;;
24617;SDS011;12762;51.730;5.356;2024-02-04T13:55:06;7.53;;;1.30;;
24617;SDS011;12762;51.730;5.356;2024-02-04T13:57:34;4.97;;;1.33;;
24617;SDS011;12762;51.730;5.356;2024-02-04T14:00:02;6.23;;;1.20;;
24617;SDS011;12762;51.730;5.356;2024-02-04T14:02:31;6.73;;;1.57;;
24617;SDS011;12762;51.730;5.356;2024-02-04T14:04:58;5.00;;;1.13;;
24617;SDS011;12762;51.730;5.356;2024-02-04T14:07:27;4.57;;;1.53;;
24617;SDS011;12762;51.730;5.356;2024-02-04T14:09:56;4.70;;;1.20;;
24617;SDS011;12762;51.730;5.356;2024-02-04T14:12:23;4.87;;;1.40;;
24617;SDS011;12762;51.730;5.356;2024-02-04T14:14:50;3.37;;;1.20;;
24617;SDS011;12762;51.730;5.356;2024-02-04T14:17:17;4.43;;;1.30;;
24617;SDS011;12762;51.730;5.356;2024-02-04T14:19:44;6.43;;;1.40;;
24617;SDS011;12762;51.730;5.356;2024-02-04T14:22:15;5.30;;;1.10;;
24617;SDS011;12762;51.730;5.356;2024-02-04T14:24:44;3.77;;;1.27;;
24617;SDS011;12762;51.730;5.356;2024-02-04T14:27:12;4.17;;;1.30;;
24617;SDS011;12762;51.730;5.356;2024-02-04T14:29:39;4.80;;;1.40;;
24617;SDS011;12762;51.730;5.356;2024-02-04T14:32:05;5.30;;;1.10;;
24617;SDS011;12762;51.730;5.356;2024-02-04T14:34:32;2.53;;;0.90;;
24617;SDS011;12762;51.730;5.356;2024-02-04T14:37:00;4.70;;;1.10;;
24617;SDS011;12762;51.730;5.356;2024-02-04T14:39:27;4.07;;;1.10;;
24617;SDS011;12762;51.730;5.356;2024-02-04T14:41:54;7.33;;;1.40;;
24617;SDS011;12762;51.730;5.356;2024-02-04T14:44:21;6.20;;;1.47;;
24617;SDS011;12762;51.730;5.356;2024-02-04T14:46:47;5.73;;;1.23;;
24617;SDS011;12762;51.730;5.356;2024-02-04T14:49:14;6.37;;;1.60;;
24617;SDS011;12762;51.730;5.356;2024-02-04T14:51:41;5.30;;;1.00;;
24617;SDS011;12762;51.730;5.356;2024-02-04T14:54:09;2.63;;;1.00;;
24617;SDS011;12762;51.730;5.356;2024-02-04T14:56:40;3.73;;;0.90;;